sensor_id;sensor_type;location;lat;lon;timestamp;P1;durP1;ratioP1;P2;durP2;ratioP2
7883;SDS011;3987;51.458;7.238;2023-07-08T00:14:34;3.20;;;2.67;;
7883;SDS011;3987;51.458;7.238;2023-07-08T00:29:34;4.43;;;2.60;;
7883;SDS011;3987;51.458;7.238;2023-07-08T00:44:34;3.00;;;2.90;;
7883;SDS011;3987;51.458;7.238;2023-07-08T00:59:40;3.23;;;3.03;;
7883;SDS011;3987;51.458;7.238;2023-07-08T01:14:43;3.23;;;2.67;;
7883;SDS011;3987;51.458;7.238;2023-07-08T01:29:45;4.40;;;2.60;;
7883;SDS011;3987;51.458;7.238;2023-07-08T01:44:47;3.33;;;2.67;;
7883;SDS011;3987;51.458;7.238;2023-07-08T01:59:47;3.40;;;3.03;;
7883;SDS011;3987;51.458;7.238;2023-07-08T02:14:48;4.27;;;2.97;;
7883;SDS011;3987;51.458;7.238;2023-07-08T02:29:48;3.50;;;3.40;;
7883;SDS011;3987;51.458;7.238;2023-07-08T02:44:49;3.13;;;3.03;;
7883;SDS011;3987;51.458;7.238;2023-07-08T02:59:49;3.17;;;2.93;;
7883;SDS011;3987;51.458;7.238;2023-07-08T03:14:49;3.50;;;3.30;;
7883;SDS011;3987;51.458;7.238;2023-07-08T03:29:50;3.47;;;3.27;;
7883;SDS011;3987;51.458;7.238;2023-07-08T03:44:51;3.50;;;3.30;;
7883;SDS011;3987;51.458;7.238;2023-07-08T03:59:51;3.63;;;3.40;;
7883;SDS011;3987;51.458;7.238;2023-07-08T04:14:53;3.50;;;3.23;;
7883;SDS011;3987;51.458;7.238;2023-07-08T04:29:53;5.37;;;3.37;;
7883;SDS011;3987;51.458;7.238;2023-07-08T04:44:55;3.77;;;3.57;;
7883;SDS011;3987;51.458;7.238;2023-07-08T04:59:55;3.63;;;3.50;;
7883;SDS011;3987;51.458;7.238;2023-07-08T05:14:55;4.10;;;3.57;;
7883;SDS011;3987;51.458;7.238;2023-07-08T05:29:56;3.70;;;3.50;;
7883;SDS011;3987;51.458;7.238;2023-07-08T05:44:56;3.83;;;3.50;;
7883;SDS011;3987;51.458;7.238;2023-07-08T05:59:59;4.20;;;3.37;;
7883;SDS011;3987;51.458;7.238;2023-07-08T06:14:59;3.53;;;3.17;;
7883;SDS011;3987;51.458;7.238;2023-07-08T06:30:00;3.20;;;3.10;;
7883;SDS011;3987;51.458;7.238;2023-07-08T06:45:00;4.10;;;3.57;;
7883;SDS011;3987;51.458;7.238;2023-07-08T07:00:01;3.30;;;3.20;;
7883;SDS011;3987;51.458;7.238;2023-07-08T07:15:01;3.30;;;3.20;;
7883;SDS011;3987;51.458;7.238;2023-07-08T07:30:02;4.00;;;3.80;;
7883;SDS011;3987;51.458;7.238;2023-07-08T07:45:03;3.70;;;3.60;;
7883;SDS011;3987;51.458;7.238;2023-07-08T08:00:04;5.40;;;4.57;;
7883;SDS011;3987;51.458;7.238;2023-07-08T08:15:13;4.30;;;3.90;;
7883;SDS011;3987;51.458;7.238;2023-07-08T08:30:13;4.90;;;4.27;;
7883;SDS011;3987;51.458;7.238;2023-07-08T08:45:19;3.87;;;3.57;;
7883;SDS011;3987;51.458;7.238;2023-07-08T09:00:25;5.27;;;4.93;;
7883;SDS011;3987;51.458;7.238;2023-07-08T09:15:39;5.33;;;5.13;;
7883;SDS011;3987;51.458;7.238;2023-07-08T09:30:55;4.40;;;4.30;;
7883;SDS011;3987;51.458;7.238;2023-07-08T09:45:59;4.32;;;4.13;;
7883;SDS011;3987;51.458;7.238;2023-07-08T10:01:13;4.20;;;3.80;;
7883;SDS011;3987;51.458;7.238;2023-07-08T10:31:27;4.40;;;4.03;;
7883;SDS011;3987;51.458;7.238;2023-07-08T10:46:44;3.47;;;3.25;;
7883;SDS011;3987;51.458;7.238;2023-07-08T11:32:31;3.15;;;3.05;;
7883;SDS011;3987;51.458;7.238;2023-07-08T12:02:46;3.70;;;3.60;;
7883;SDS011;3987;51.458;7.238;2023-07-08T12:17:49;4.68;;;3.45;;
7883;SDS011;3987;51.458;7.238;2023-07-08T12:32:52;3.53;;;3.40;;
7883;SDS011;3987;51.458;7.238;2023-07-08T12:47:52;3.50;;;3.33;;
7883;SDS011;3987;51.458;7.238;2023-07-08T13:02:57;3.30;;;3.17;;
7883;SDS011;3987;51.458;7.238;2023-07-08T13:17:59;3.67;;;3.38;;
7883;SDS011;3987;51.458;7.238;2023-07-08T13:33:00;3.40;;;3.30;;
7883;SDS011;3987;51.458;7.238;2023-07-08T14:03:11;3.22;;;3.13;;
7883;SDS011;3987;51.458;7.238;2023-07-08T14:18:13;3.00;;;2.80;;
7883;SDS011;3987;51.458;7.238;2023-07-08T14:33:14;3.67;;;2.90;;
7883;SDS011;3987;51.458;7.238;2023-07-08T14:48:14;3.25;;;3.15;;
7883;SDS011;3987;51.458;7.238;2023-07-08T15:03:15;3.35;;;3.13;;
7883;SDS011;3987;51.458;7.238;2023-07-08T15:18:16;3.42;;;3.25;;
7883;SDS011;3987;51.458;7.238;2023-07-08T15:33:18;3.17;;;3.08;;
7883;SDS011;3987;51.458;7.238;2023-07-08T15:48:18;4.80;;;3.72;;
7883;SDS011;3987;51.458;7.238;2023-07-08T16:03:23;3.10;;;3.00;;
7883;SDS011;3987;51.458;7.238;2023-07-08T16:18:31;3.63;;;3.28;;
7883;SDS011;3987;51.458;7.238;2023-07-08T16:33:32;3.10;;;2.85;;
7883;SDS011;3987;51.458;7.238;2023-07-08T16:48:32;3.58;;;3.38;;
7883;SDS011;3987;51.458;7.238;2023-07-08T17:03:33;3.75;;;3.50;;
7883;SDS011;3987;51.458;7.238;2023-07-08T17:18:34;4.43;;;4.20;;
7883;SDS011;3987;51.458;7.238;2023-07-08T17:33:35;4.15;;;3.92;;
7883;SDS011;3987;51.458;7.238;2023-07-08T17:48:35;5.05;;;4.85;;
7883;SDS011;3987;51.458;7.238;2023-07-08T18:03:36;5.95;;;5.45;;
7883;SDS011;3987;51.458;7.238;2023-07-08T18:18:36;6.32;;;5.80;;
7883;SDS011;3987;51.458;7.238;2023-07-08T18:33:37;9.52;;;5.43;;
7883;SDS011;3987;51.458;7.238;2023-07-08T18:48:37;6.07;;;5.32;;
7883;SDS011;3987;51.458;7.238;2023-07-08T19:03:38;7.25;;;6.00;;
7883;SDS011;3987;51.458;7.238;2023-07-08T19:18:39;6.00;;;5.70;;
7883;SDS011;3987;51.458;7.238;2023-07-08T19:33:40;6.77;;;6.23;;
7883;SDS011;3987;51.458;7.238;2023-07-08T19:48:44;4.77;;;4.40;;
7883;SDS011;3987;51.458;7.238;2023-07-08T20:03:45;4.73;;;4.47;;
7883;SDS011;3987;51.458;7.238;2023-07-08T20:18:45;4.20;;;3.93;;
7883;SDS011;3987;51.458;7.238;2023-07-08T20:33:45;4.07;;;3.90;;
7883;SDS011;3987;51.458;7.238;2023-07-08T20:48:46;3.27;;;3.17;;
7883;SDS011;3987;51.458;7.238;2023-07-08T21:03:47;3.53;;;3.10;;
7883;SDS011;3987;51.458;7.238;2023-07-08T21:18:47;3.33;;;3.13;;
7883;SDS011;3987;51.458;7.238;2023-07-08T21:33:49;4.03;;;3.17;;
7883;SDS011;3987;51.458;7.238;2023-07-08T21:48:49;6.20;;;3.13;;
7883;SDS011;3987;51.458;7.238;2023-07-08T22:03:50;3.70;;;3.60;;
7883;SDS011;3987;51.458;7.238;2023-07-08T22:18:51;4.13;;;3.83;;
7883;SDS011;3987;51.458;7.238;2023-07-08T22:33:53;3.90;;;3.67;;
7883;SDS011;3987;51.458;7.238;2023-07-08T22:48:53;4.03;;;3.60;;
7883;SDS011;3987;51.458;7.238;2023-07-08T23:03:57;4.40;;;3.90;;
7883;SDS011;3987;51.458;7.238;2023-07-08T23:18:58;4.40;;;4.30;;
7883;SDS011;3987;51.458;7.238;2023-07-08T23:34:02;4.03;;;3.83;;
7883;SDS011;3987;51.458;7.238;2023-07-08T23:49:09;3.70;;;3.50;;
